EGUL

RAF Lakenheath Airport

Lakenheath, United Kingdom
METAR EGUL 211256Z AUTO 31007KT 9999 CLR 26/13 A2992 RMK AO2 SLP135 T02610129 $
Observed Flight Rules
Jul-21 @ 12:56 UTC (54 minutes ago) Visual Flight Rules
Wind Visibility Clouds
310° at 7 knots 10,000+ meters
  • Clear skies
Temperatures Readings
Current 26°C / 79°F
Dewpoint 13°C / 55°F
Humidity 45%
Altimeter 29.92" Hg
Pressure 1013.5 hPa
Elevation 10
METAR EGUL 211256Z AUTO 31007KT 9999 CLR 26/13 A2992 RMK AO2 SLP135 T02610129 $
Observed Flight Rules
Jul-21 @ 12:56 UTC
(54 minutes ago)
VFR
Wind Visibility
310° at 7 knots 10,000+ meters
Clouds
  • Clear skies
Temperature Dewpoint
26°C / 79°F 13°C / 55°F
Humidity Altimeter Pressure
45% 29.92" Hg 1013.5 hPa